Time;durP1;ratioP1;P1;durP2;ratioP2;P2;SDS_P1;SDS_P2;PMS_P1;PMS_P2;Temp;Humidity;BMP_temperature;BMP_pressure;BME280_temperature;BME280_humidity;BME280_pressure;Samples;Min_cycle;Max_cycle;Signal;HPM_P1;HPM_P2
2022/12/09 00:03:06;;;;;;;15.02;13.35;;;;;;;4.59;76.08;99240.28;10323945;28;20058;-60
2022/12/09 00:08:08;;;;;;;15.27;13.32;;;;;;;4.63;77.17;99244.41;10328992;28;20065;-62
2022/12/09 00:13:10;;;;;;;18.55;13.57;;;;;;;4.69;76.58;99229.94;10331134;28;20599;-61
2022/12/09 00:18:11;;;;;;;15.10;12.57;;;;;;;4.69;76.73;99225.50;10325629;28;20068;-61
2022/12/09 00:23:12;;;;;;;16.30;12.40;;;;;;;4.68;77.07;99207.16;10327249;28;20058;-61
2022/12/09 00:28:14;;;;;;;18.27;14.10;;;;;;;4.72;76.94;99224.44;10330235;28;20148;-61
2022/12/09 00:33:15;;;;;;;15.93;13.75;;;;;;;4.83;76.69;99219.22;10338020;28;20053;-61
2022/12/09 00:38:17;;;;;;;16.27;14.48;;;;;;;4.84;75.93;99223.53;10332120;28;20134;-61
2022/12/09 00:43:18;;;;;;;14.80;12.48;;;;;;;4.89;76.03;99216.13;10334093;28;20054;-62
2022/12/09 00:48:19;;;;;;;16.67;14.10;;;;;;;4.79;76.98;99217.78;10333207;28;20050;-61
2022/12/09 00:53:21;;;;;;;18.00;14.07;;;;;;;4.73;76.62;99205.06;10331421;28;20053;-62
2022/12/09 00:58:23;;;;;;;17.25;12.95;;;;;;;4.65;76.70;99217.94;10334383;28;20046;-61
2022/12/09 01:03:25;;;;;;;16.52;13.32;;;;;;;4.51;76.30;99196.03;10336961;28;20606;-60
2022/12/09 01:08:27;;;;;;;15.77;13.73;;;;;;;4.67;76.66;99218.66;10331755;28;20054;-61
2022/12/09 01:13:29;;;;;;;14.10;12.00;;;;;;;4.69;76.22;99216.75;10335052;28;20456;-60
2022/12/09 01:18:30;;;;;;;16.05;13.23;;;;;;;4.67;76.02;99216.00;10338729;28;20054;-61
2022/12/09 01:23:32;;;;;;;15.10;12.80;;;;;;;4.63;76.15;99209.31;10330445;28;20046;-61
2022/12/09 01:28:35;;;;;;;14.68;11.02;;;;;;;4.78;75.19;99219.56;10335073;28;20045;-62
2022/12/09 01:33:37;;;;;;;12.77;11.30;;;;;;;4.79;75.68;99220.41;10334090;28;20100;-61
2022/12/09 01:38:38;;;;;;;15.35;12.57;;;;;;;4.76;75.57;99218.00;10338830;28;20054;-61
2022/12/09 01:43:40;;;;;;;15.25;12.38;;;;;;;4.59;76.54;99196.34;10340336;28;20046;-61
2022/12/09 01:48:45;;;;;;;19.33;13.73;;;;;;;4.63;77.49;99206.66;10333299;28;20046;-60
2022/12/09 01:53:49;;;;;;;16.93;13.30;;;;;;;4.58;77.03;99202.56;10335192;28;20445;-61
2022/12/09 01:58:52;;;;;;;14.55;12.55;;;;;;;4.50;77.53;99207.53;10329912;28;20373;-61
2022/12/09 02:03:54;;;;;;;14.23;12.68;;;;;;;4.48;77.80;99201.53;10329272;28;20496;-61
2022/12/09 02:08:57;;;;;;;14.77;12.93;;;;;;;4.40;77.55;99210.00;10328900;28;20046;-59
2022/12/09 02:14:14;;;;;;;14.98;12.55;;;;;;;4.39;78.27;99205.66;10328548;28;20073;-62
2022/12/09 02:19:37;;;;;;;11.65;10.35;;;;;;;4.38;77.60;99195.25;10329318;28;20054;-60
2022/12/09 02:25:09;;;;;;;14.43;11.18;;;;;;;4.37;77.93;99189.16;10335860;28;20046;-61
2022/12/09 02:30:18;;;;;;;15.48;11.55;;;;;;;4.34;77.24;99180.59;10326143;28;20050;-61
2022/12/09 02:35:26;;;;;;;14.25;12.20;;;;;;;4.52;77.62;99181.06;10324372;28;20046;-60
2022/12/09 02:40:52;;;;;;;15.05;11.63;;;;;;;4.51;77.88;99174.97;10336341;28;20438;-61
2022/12/09 02:45:57;;;;;;;16.00;13.27;;;;;;;4.51;77.95;99174.97;10326899;28;20042;-61
2022/12/09 02:51:03;;;;;;;16.88;13.57;;;;;;;4.47;78.00;99167.38;10331467;28;20114;-60
2022/12/09 02:56:06;;;;;;;16.98;13.38;;;;;;;4.54;78.68;99169.47;10332079;28;20104;-60
2022/12/09 03:01:21;;;;;;;16.85;13.82;;;;;;;4.57;78.68;99150.78;10333251;28;20053;-61
2022/12/09 03:06:29;;;;;;;18.33;14.43;;;;;;;4.49;79.10;99139.97;10332562;28;20103;-62
2022/12/09 03:11:32;;;;;;;17.95;14.52;;;;;;;4.52;79.56;99146.81;10328995;28;20389;-61
2022/12/09 03:16:41;;;;;;;18.92;15.30;;;;;;;4.50;79.64;99148.72;10333717;28;20057;-61
2022/12/09 03:21:46;;;;;;;22.77;14.63;;;;;;;4.30;80.53;99118.56;10334046;28;20065;-61
2022/12/09 03:26:50;;;;;;;17.90;14.65;;;;;;;4.44;80.74;99131.56;10330068;28;20054;-62
2022/12/09 03:31:55;;;;;;;19.13;14.88;;;;;;;4.41;80.90;99129.16;10342672;28;20477;-62
2022/12/09 03:37:00;;;;;;;16.75;14.80;;;;;;;4.38;80.93;99126.72;10327698;28;20053;-60
2022/12/09 03:42:13;;;;;;;18.65;15.13;;;;;;;4.40;81.12;99124.84;10325782;28;20109;-60
2022/12/09 03:47:15;;;;;;;19.90;15.45;;;;;;;4.33;81.17;99107.78;10328464;28;20062;-61
2022/12/09 03:52:30;;;;;;;20.27;15.20;;;;;;;4.35;80.81;99113.78;10323074;28;20077;-61
2022/12/09 03:57:36;;;;;;;18.35;15.35;;;;;;;4.33;80.37;99102.53;10325314;28;20125;-59
2022/12/09 04:02:38;;;;;;;19.65;16.25;;;;;;;4.37;80.75;99114.53;10323454;28;20519;-60
2022/12/09 04:07:40;;;;;;;18.27;15.82;;;;;;;4.35;80.95;99119.06;10325830;28;20111;-60
2022/12/09 04:12:42;;;;;;;18.92;14.85;;;;;;;4.32;80.60;99114.00;10331718;28;20046;-60
2022/12/09 04:17:43;;;;;;;21.98;15.45;;;;;;;4.31;80.63;99101.78;10327789;28;20050;-60
2022/12/09 04:22:45;;;;;;;20.42;15.63;;;;;;;4.09;80.72;99069.09;10321188;28;20125;-60
2022/12/09 04:27:46;;;;;;;17.25;14.90;;;;;;;4.33;81.07;99107.78;10320150;28;20081;-60
2022/12/09 04:32:48;;;;;;;21.77;15.80;;;;;;;4.29;80.81;99112.44;10318652;28;20057;-61
2022/12/09 04:37:49;;;;;;;17.60;14.95;;;;;;;4.32;80.95;99111.38;10325087;28;20035;-61
2022/12/09 04:42:51;;;;;;;17.08;15.20;;;;;;;4.27;80.32;99114.34;10332755;28;20128;-60
2022/12/09 04:47:53;;;;;;;19.08;15.38;;;;;;;4.25;80.39;99111.81;10328103;28;20045;-62
2022/12/09 04:52:54;;;;;;;21.58;15.38;;;;;;;4.20;80.57;99113.09;10321227;28;20068;-61
2022/12/09 04:57:56;;;;;;;18.30;15.20;;;;;;;4.23;80.60;99104.97;10323396;28;20057;-61
2022/12/09 05:02:58;;;;;;;17.80;14.75;;;;;;;4.25;80.63;99097.81;10322150;28;20049;-61
2022/12/09 05:07:59;;;;;;;18.30;14.85;;;;;;;4.35;80.17;99108.50;10322851;28;20045;-62
2022/12/09 05:13:02;;;;;;;16.30;13.90;;;;;;;4.40;79.97;99109.03;10327458;28;20046;-61
2022/12/09 05:18:03;;;;;;;18.58;14.68;;;;;;;4.53;79.33;99104.53;10328858;28;20046;-61
2022/12/09 05:23:06;;;;;;;20.42;16.23;;;;;;;4.44;79.28;99099.94;10331132;28;20062;-62
2022/12/09 05:28:10;;;;;;;20.02;14.90;;;;;;;4.47;79.76;99098.88;10330617;28;20050;-62
2022/12/09 05:33:12;;;;;;;18.33;15.32;;;;;;;4.34;79.18;99093.66;10329903;28;20046;-61
2022/12/09 05:38:13;;;;;;;20.23;16.83;;;;;;;4.02;79.75;99036.25;10326948;28;20061;-61
2022/12/09 05:43:16;;;;;;;19.63;15.95;;;;;;;4.33;79.41;99081.44;10327552;28;20042;-62
2022/12/09 05:48:17;;;;;;;18.48;15.88;;;;;;;4.36;79.44;99091.75;10324624;28;20437;-59
2022/12/09 05:53:19;;;;;;;19.00;15.10;;;;;;;4.39;79.53;99076.56;10316012;28;20149;-62
2022/12/09 05:58:20;;;;;;;17.60;14.70;;;;;;;4.37;79.38;99067.94;10315808;28;20074;-60
2022/12/09 06:03:23;;;;;;;18.02;15.82;;;;;;;4.43;79.03;99067.47;10324062;28;20042;-61
2022/12/09 06:08:25;;;;;;;17.92;16.00;;;;;;;4.37;79.27;99061.84;10321664;28;20396;-62
2022/12/09 06:13:27;;;;;;;16.55;14.32;;;;;;;4.37;79.52;99065.31;10322700;28;20057;-62
2022/12/09 06:18:29;;;;;;;18.83;16.25;;;;;;;4.28;79.85;99041.41;10323006;28;20135;-59
2022/12/09 06:23:30;;;;;;;20.25;16.65;;;;;;;4.36;79.48;99054.88;10320198;28;20048;-59
2022/12/09 06:28:33;;;;;;;18.58;15.50;;;;;;;4.31;79.45;99054.34;10319957;28;20163;-61
2022/12/09 06:33:34;;;;;;;18.45;15.35;;;;;;;4.25;79.48;99053.88;10321096;28;20043;-61
2022/12/09 06:38:56;;;;;;;19.85;16.27;;;;;;;4.38;79.24;99064.34;10319618;28;20527;-61
2022/12/09 06:44:03;;;;;;;18.98;15.63;;;;;;;4.45;78.91;99064.72;10319754;28;20881;-62
2022/12/09 06:49:05;;;;;;;18.75;16.33;;;;;;;4.41;79.44;99068.53;10319664;28;20501;-61
2022/12/09 06:54:08;;;;;;;19.08;16.50;;;;;;;4.42;78.96;99080.78;10317499;28;20996;-62
2022/12/09 06:59:10;;;;;;;20.50;16.83;;;;;;;4.34;78.94;99070.81;10318137;28;20568;-61
2022/12/09 07:04:13;;;;;;;19.88;16.05;;;;;;;4.37;79.09;99078.47;10318595;28;20064;-61
2022/12/09 07:09:19;;;;;;;19.02;15.60;;;;;;;4.39;79.04;99076.56;10314185;28;20557;-61
2022/12/09 07:14:22;;;;;;;17.75;14.60;;;;;;;4.51;79.24;99084.53;10309859;28;20054;-62
2022/12/09 07:19:23;;;;;;;17.02;15.13;;;;;;;4.42;78.95;99075.50;10311505;28;20057;-61
2022/12/09 07:24:25;;;;;;;18.58;14.55;;;;;;;4.41;79.03;99068.53;10311588;28;20093;-60
2022/12/09 07:29:29;;;;;;;17.70;15.75;;;;;;;4.30;79.02;99063.25;10312304;28;20747;-60
2022/12/09 07:34:31;;;;;;;18.05;15.20;;;;;;;4.27;79.10;99074.84;10311279;28;20487;-60
2022/12/09 07:39:33;;;;;;;20.70;16.45;;;;;;;4.11;79.54;99077.72;10308996;28;20055;-60
2022/12/09 07:44:35;;;;;;;19.05;15.23;;;;;;;4.03;80.53;99080.09;10316433;28;20279;-59
2022/12/09 07:49:36;;;;;;;16.73;14.38;;;;;;;3.88;80.63;99074.13;10318873;28;20050;-62
2022/12/09 07:54:38;;;;;;;18.92;15.90;;;;;;;3.75;80.64;99050.47;10312409;28;20500;-62
2022/12/09 07:59:40;;;;;;;18.27;15.32;;;;;;;3.80;80.85;99074.69;10311297;28;20051;-60
2022/12/09 08:04:41;;;;;;;20.70;16.38;;;;;;;3.75;81.29;99068.88;10312660;28;20077;-64
2022/12/09 08:09:43;;;;;;;20.45;15.38;;;;;;;3.71;81.27;99064.81;10328507;28;20112;-63
2022/12/09 08:14:45;;;;;;;21.35;16.30;;;;;;;3.74;81.00;99064.59;10319712;28;20124;-59
2022/12/09 08:19:48;;;;;;;19.23;16.00;;;;;;;3.74;81.22;99075.13;10315510;28;20814;-59
2022/12/09 08:24:50;;;;;;;19.33;15.35;;;;;;;3.66;81.14;99066.91;10313407;28;20447;-61
2022/12/09 08:29:52;;;;;;;23.00;17.27;;;;;;;3.80;81.21;99072.06;10315893;28;21406;-59
2022/12/09 08:34:54;;;;;;;25.80;16.80;;;;;;;3.83;80.88;99071.84;10317226;28;20042;-62
2022/12/09 08:39:56;;;;;;;21.98;16.67;;;;;;;3.83;80.77;99068.38;10319173;28;20151;-60
2022/12/09 08:44:58;;;;;;;18.33;15.18;;;;;;;3.74;79.50;99064.59;10317959;28;20046;-60
2022/12/09 08:50:03;;;;;;;20.02;15.75;;;;;;;3.68;79.75;99059.78;10315954;28;20056;-60
2022/12/09 08:55:06;;;;;;;20.65;15.90;;;;;;;3.58;79.35;99048.22;10335863;28;20171;-62
2022/12/09 09:00:07;;;;;;;17.60;15.40;;;;;;;3.74;78.51;99064.59;10325655;28;20470;-61
2022/12/09 09:05:10;;;;;;;17.83;15.18;;;;;;;3.66;78.26;99037.97;10331989;28;20064;-60
2022/12/09 09:10:12;;;;;;;17.50;14.65;;;;;;;3.88;78.03;99056.53;10329467;28;20161;-61
2022/12/09 09:15:14;;;;;;;19.23;15.68;;;;;;;4.10;76.64;99067.31;10328497;28;20051;-61
2022/12/09 09:20:16;;;;;;;17.83;13.55;;;;;;;4.27;75.75;99066.09;10326788;28;20060;-60
2022/12/09 09:25:18;;;;;;;14.40;12.73;;;;;;;4.47;74.81;99068.09;10330807;28;20057;-59
2022/12/09 09:30:20;;;;;;;16.40;11.88;;;;;;;4.72;73.02;99034.63;10328459;28;20596;-61
2022/12/09 09:35:22;;;;;;;14.88;12.13;;;;;;;4.99;72.47;99049.31;10326502;28;20056;-60
2022/12/09 09:40:26;;;;;;;15.05;13.25;;;;;;;4.76;72.51;99057.19;10327545;28;20054;-61
2022/12/09 09:45:27;;;;;;;13.97;11.20;;;;;;;4.63;72.41;99041.44;10326650;28;20050;-59
2022/12/09 09:50:48;;;;;;;13.25;11.68;;;;;;;4.58;71.80;99052.31;10324251;28;20065;-62
2022/12/09 09:55:57;;;;;;;10.55;9.00;;;;;;;4.65;70.67;99046.59;10325619;28;20521;-60
2022/12/09 10:01:08;;;;;;;12.00;9.73;;;;;;;4.77;69.39;99022.78;10320342;28;20045;-60
2022/12/09 10:06:33;;;;;;;12.88;10.40;;;;;;;4.94;69.49;99025.94;10321717;28;20061;-62
2022/12/09 10:11:54;;;;;;;13.50;11.00;;;;;;;4.93;69.68;99022.44;10319868;28;20078;-60
2022/12/09 10:17:05;;;;;;;11.65;10.02;;;;;;;5.30;68.57;99024.88;10322272;28;20115;-61
2022/12/09 10:22:12;;;;;;;11.25;9.60;;;;;;;5.68;66.48;99024.63;10324069;28;20057;-61
2022/12/09 10:27:29;;;;;;;12.85;10.13;;;;;;;6.09;64.53;99023.09;10319960;28;20531;-61
2022/12/09 10:32:34;;;;;;;11.50;9.50;;;;;;;6.65;62.51;99014.94;10319872;28;20093;-61
2022/12/09 10:37:36;;;;;;;12.75;10.25;;;;;;;6.83;60.88;99012.53;10319192;28;20053;-60
2022/12/09 10:48:31;;;;;;;11.27;10.00;;;;;;;7.84;58.37;99017.97;10316685;28;20054;-60
2022/12/09 10:53:35;;;;;;;11.38;9.90;;;;;;;8.90;55.01;99020.78;10317629;28;20062;-62
2022/12/09 10:58:37;;;;;;;11.13;9.45;;;;;;;9.93;52.38;99014.63;10314101;28;20149;-60
2022/12/09 11:03:45;;;;;;;9.45;8.50;;;;;;;11.60;47.29;99004.88;10315021;28;20645;-59
2022/12/09 11:08:56;;;;;;;11.68;9.75;;;;;;;10.31;49.84;98988.75;10309490;28;20053;-60
2022/12/09 11:13:58;;;;;;;11.00;8.90;;;;;;;9.66;50.56;98997.72;10314900;28;20077;-60
2022/12/09 11:19:00;;;;;;;9.85;8.80;;;;;;;8.65;52.76;98995.69;10311375;28;20278;-59
2022/12/09 11:24:03;;;;;;;14.18;10.45;;;;;;;8.16;54.06;98986.91;10315595;28;20042;-60
2022/12/09 11:29:15;;;;;;;10.80;9.70;;;;;;;8.15;54.55;98980.75;10312352;28;20786;-60
2022/12/09 11:34:22;;;;;;;10.50;9.38;;;;;;;9.33;52.22;98973.41;10315393;28;20108;-60
2022/12/09 11:39:27;;;;;;;10.18;9.10;;;;;;;9.65;50.82;98980.09;10316396;28;20057;-61
2022/12/09 11:44:30;;;;;;;;;;;;;;;8.94;52.21;98981.53;10316785;28;20320;-58
2022/12/09 11:49:49;;;;;;;9.88;8.75;;;;;;;9.29;51.05;98978.19;10311931;28;20384;-59
2022/12/09 11:55:04;;;;;;;9.93;8.35;;;;;;;11.67;45.23;98967.78;10312954;28;20073;-59
2022/12/09 12:00:20;;;;;;;8.50;7.60;;;;;;;15.47;38.73;98955.22;10320482;28;20046;-61
2022/12/09 12:05:36;;;;;;;9.45;8.48;;;;;;;18.44;32.02;98949.84;10313964;28;20049;-60
2022/12/09 12:10:49;;;;;;;9.60;8.52;;;;;;;18.91;30.28;98953.34;10319853;28;20500;-61
2022/12/09 12:16:12;;;;;;;8.43;7.22;;;;;;;20.24;28.60;98943.91;10316095;28;20135;-60
2022/12/09 12:21:32;;;;;;;9.00;8.13;;;;;;;21.24;26.94;98939.50;10314794;28;20137;-59
2022/12/09 12:26:48;;;;;;;8.43;7.75;;;;;;;21.95;25.99;98939.06;10314924;28;20060;-60
2022/12/09 12:31:58;;;;;;;7.90;7.20;;;;;;;18.98;28.90;98932.59;10308574;28;20045;-59
2022/12/09 12:37:32;;;;;;;7.05;6.45;;;;;;;16.96;32.03;98935.00;10307723;28;20046;-59
2022/12/09 12:42:34;;;;;;;7.22;6.60;;;;;;;14.06;37.06;98932.63;10308677;28;20049;-60
2022/12/09 12:48:07;;;;;;;7.03;6.32;;;;;;;17.59;30.76;98926.81;10313645;28;20050;-59
2022/12/09 12:53:59;;;;;;;6.72;6.03;;;;;;;20.00;27.54;98928.50;10315065;28;21072;-60
2022/12/09 12:59:13;;;;;;;7.50;6.90;;;;;;;19.26;28.77;98928.81;10294212;28;20372;-60
2022/12/09 13:04:35;;;;;;;7.97;7.28;;;;;;;18.40;29.24;98911.69;10304577;28;20082;-61
2022/12/09 13:09:52;;;;;;;8.40;7.70;;;;;;;13.55;37.34;98927.75;10310175;28;20054;-60
2022/12/09 13:14:54;;;;;;;8.68;7.82;;;;;;;10.90;43.04;98928.66;10315630;28;20044;-61
2022/12/09 13:19:59;;;;;;;8.73;7.82;;;;;;;9.49;46.42;98928.47;10314515;28;20927;-61
2022/12/09 13:25:17;;;;;;;10.13;9.23;;;;;;;8.80;49.25;98938.53;10309831;28;20046;-61
2022/12/09 13:30:22;;;;;;;10.27;9.23;;;;;;;8.01;50.93;98907.78;10306997;28;20058;-59
2022/12/09 13:35:36;;;;;;;11.00;9.45;;;;;;;9.66;48.55;98912.69;10310094;28;20185;-61
2022/12/09 13:40:37;;;;;;;8.87;7.97;;;;;;;9.19;49.94;98927.78;10311482;28;20054;-63
2022/12/09 13:45:42;;;;;;;9.38;8.38;;;;;;;8.74;50.75;98917.91;10316319;28;20156;-60
2022/12/09 13:50:59;;;;;;;11.57;9.30;;;;;;;8.22;52.96;98922.72;10318844;28;20144;-61
2022/12/09 13:56:17;;;;;;;10.43;8.43;;;;;;;7.63;53.91;98906.81;10322997;28;20509;-60
2022/12/09 14:01:21;;;;;;;8.30;7.43;;;;;;;7.36;55.40;98920.72;10320942;28;20050;-61
2022/12/09 14:06:30;;;;;;;13.10;8.60;;;;;;;7.12;56.06;98923.69;10331019;28;20152;-61
2022/12/09 14:11:42;;;;;;;8.55;7.65;;;;;;;7.05;56.44;98920.75;10322767;28;20054;-60
2022/12/09 14:16:43;;;;;;;10.23;7.72;;;;;;;6.82;56.69;98922.75;10321729;28;20424;-59
2022/12/09 14:22:20;;;;;;;8.50;7.60;;;;;;;6.65;56.78;98942.69;10318004;28;20057;-58
2022/12/09 14:27:27;;;;;;;7.40;6.70;;;;;;;6.51;57.42;98943.84;10320272;28;20050;-63
2022/12/09 14:32:35;;;;;;;7.05;6.28;;;;;;;6.33;57.84;98933.03;10316651;28;20077;-59
2022/12/09 14:37:52;;;;;;;7.43;6.65;;;;;;;6.18;58.37;98933.38;10318557;28;20175;-60
2022/12/09 14:43:12;;;;;;;11.38;8.88;;;;;;;6.06;60.63;98941.44;10322703;28;20053;-58
2022/12/09 14:48:20;;;;;;;11.02;9.85;;;;;;;5.87;62.19;98937.66;10321569;28;20474;-61
2022/12/09 14:53:23;;;;;;;12.00;10.13;;;;;;;5.64;63.85;98948.31;10317180;28;20056;-59
2022/12/09 14:58:26;;;;;;;13.93;11.45;;;;;;;5.48;64.08;98942.56;10319750;28;20061;-61
2022/12/09 15:03:28;;;;;;;13.60;10.00;;;;;;;5.40;65.00;98958.16;10321868;28;20615;-63
2022/12/09 15:08:42;;;;;;;;;;;;;;;5.20;65.23;98960.59;10324208;28;20124;-61
2022/12/09 15:13:46;;;;;;;10.85;9.75;;;;;;;5.10;65.33;98955.22;10323780;28;19944;-60
2022/12/09 15:18:50;;;;;;;9.90;8.80;;;;;;;4.95;64.86;98936.16;10320882;28;20088;-57
2022/12/09 15:23:51;;;;;;;11.43;9.65;;;;;;;4.91;65.79;98950.53;10324830;28;20338;-61
2022/12/09 15:28:58;;;;;;;11.80;9.80;;;;;;;4.67;65.80;98957.69;10315650;28;20133;-59
2022/12/09 15:34:10;;;;;;;11.10;9.23;;;;;;;4.55;66.17;98955.03;10312073;28;20054;-60
2022/12/09 15:39:19;;;;;;;11.95;10.40;;;;;;;4.63;66.30;98969.44;10318254;28;20135;-60
2022/12/09 15:44:23;;;;;;;11.18;9.00;;;;;;;4.62;66.38;98975.66;10313668;28;20149;-61
2022/12/09 15:49:32;;;;;;;11.45;10.23;;;;;;;4.44;66.21;98968.19;10308121;28;20080;-61
2022/12/09 15:54:38;;;;;;;11.60;9.95;;;;;;;4.38;66.18;98960.75;10312760;28;20069;-62
2022/12/09 15:59:48;;;;;;;12.27;10.63;;;;;;;4.45;65.73;98984.84;10317076;28;20060;-62
2022/12/09 16:05:00;;;;;;;11.65;9.50;;;;;;;4.31;65.90;98975.31;10315904;28;20744;-61
2022/12/09 16:10:15;;;;;;;23.65;18.45;;;;;;;4.32;65.43;98975.22;10314301;28;20058;-63
2022/12/09 16:16:02;;;;;;;11.13;10.02;;;;;;;4.36;65.61;98997.75;10316313;28;20049;-63
2022/12/09 16:21:26;;;;;;;9.85;8.57;;;;;;;4.30;64.94;98994.75;10305372;28;20670;-60
2022/12/09 16:26:31;;;;;;;10.32;9.32;;;;;;;4.18;65.75;99005.22;10357075;23;20056;-50
2022/12/09 16:31:32;;;;;;;11.73;10.52;;;;;;;4.24;66.03;98998.66;10392077;28;20775;-52
2022/12/09 16:36:34;;;;;;;9.52;8.52;;;;;;;4.25;65.65;98997.72;10408277;28;20460;-51
2022/12/09 16:41:50;;;;;;;8.57;7.70;;;;;;;4.19;65.86;98999.00;10408081;28;20057;-51
2022/12/09 16:47:09;;;;;;;10.13;9.13;;;;;;;4.14;65.16;98993.22;10408354;28;20048;-51
2022/12/09 16:52:13;;;;;;;9.80;8.82;;;;;;;4.17;65.30;98997.44;10408759;28;20362;-56
2022/12/09 16:57:17;;;;;;;10.55;8.60;;;;;;;4.23;65.04;99005.75;10404517;28;20160;-51
2022/12/09 17:02:30;;;;;;;10.15;8.45;;;;;;;4.22;65.20;99006.69;10389039;28;20568;-57
2022/12/09 17:07:32;;;;;;;9.25;8.35;;;;;;;4.22;65.53;99005.84;10403185;28;20057;-53
2022/12/09 17:12:34;;;;;;;10.52;9.05;;;;;;;4.17;66.08;99014.06;10398262;28;20060;-54
2022/12/09 17:17:35;;;;;;;10.90;9.77;;;;;;;4.16;65.66;99008.91;10412906;28;20067;-54
2022/12/09 17:22:37;;;;;;;11.15;9.80;;;;;;;4.06;66.08;99006.97;10367545;28;21235;-54
2022/12/09 17:27:38;;;;;;;11.05;9.65;;;;;;;4.03;66.49;99001.91;10404284;28;20049;-54
2022/12/09 17:32:40;;;;;;;12.63;11.30;;;;;;;4.05;66.56;99013.19;10390836;28;20049;-55
2022/12/09 17:37:41;;;;;;;13.18;10.52;;;;;;;3.96;66.91;98999.84;10411681;28;20068;-53
2022/12/09 17:42:43;;;;;;;13.13;10.52;;;;;;;4.02;66.85;98999.41;10407672;28;20154;-54
2022/12/09 17:47:46;;;;;;;16.25;11.38;;;;;;;3.91;68.30;99007.25;10374429;23;20058;-54
2022/12/09 17:52:48;;;;;;;12.32;10.50;;;;;;;3.99;67.43;99020.69;10319839;28;20158;-49
2022/12/09 17:57:49;;;;;;;14.02;11.18;;;;;;;3.68;67.56;98993.97;10324791;28;20741;-52
2022/12/09 18:02:56;;;;;;;14.80;12.70;;;;;;;4.01;67.37;99031.97;10322735;28;20152;-50
2022/12/09 18:07:58;;;;;;;14.05;12.05;;;;;;;3.90;67.28;99038.00;10320527;28;20060;-50
2022/12/09 18:12:59;;;;;;;15.68;11.68;;;;;;;3.77;68.02;99043.31;10323570;28;20064;-52
2022/12/09 18:18:01;;;;;;;13.40;12.02;;;;;;;3.86;67.70;99042.66;10334436;28;20831;-51
2022/12/09 18:23:02;;;;;;;13.88;12.18;;;;;;;3.77;68.11;99043.31;10330370;28;20057;-52
2022/12/09 18:28:04;;;;;;;14.25;12.23;;;;;;;3.78;67.90;99044.97;10332514;28;20057;-51
2022/12/09 18:33:05;;;;;;;18.20;12.23;;;;;;;3.61;68.67;99048.00;10332615;28;20842;-50
2022/12/09 18:38:07;;;;;;;17.45;14.07;;;;;;;3.70;68.53;99057.84;10330885;28;20503;-50
2022/12/09 18:43:13;;;;;;;13.90;12.35;;;;;;;3.71;68.50;99054.28;10328305;28;20041;-49
2022/12/09 18:48:14;;;;;;;15.40;12.93;;;;;;;3.63;68.49;99053.97;10318103;28;21375;-50
2022/12/09 18:53:16;;;;;;;17.33;15.50;;;;;;;3.58;68.83;99053.47;10321725;28;20680;-50
2022/12/09 18:58:17;;;;;;;17.13;15.00;;;;;;;3.58;68.96;99048.22;10315358;28;20054;-49
2022/12/09 19:03:39;;;;;;;17.65;15.45;;;;;;;3.49;69.38;99061.03;10318534;28;20057;-51
2022/12/09 19:08:40;;;;;;;16.00;14.30;;;;;;;3.42;69.09;99064.22;10321461;28;20051;-50
2022/12/09 19:13:41;;;;;;;17.88;15.20;;;;;;;3.23;70.19;99048.88;10320418;28;20818;-50
2022/12/09 19:18:46;;;;;;;15.77;14.10;;;;;;;3.24;70.02;99071.59;10322080;28;20445;-50
2022/12/09 19:23:48;;;;;;;18.65;15.07;;;;;;;3.38;69.58;99062.75;10326515;28;20049;-50
2022/12/09 19:28:57;;;;;;;20.42;16.98;;;;;;;3.47;70.36;99062.97;10331857;28;20195;-50
2022/12/09 19:34:01;;;;;;;17.67;15.32;;;;;;;3.05;70.49;99078.13;10333860;28;20545;-49
2022/12/09 19:39:04;;;;;;;19.08;15.55;;;;;;;3.23;70.19;99076.03;10331660;28;20058;-50
2022/12/09 19:44:06;;;;;;;19.20;15.73;;;;;;;3.08;70.79;99080.56;10326495;28;20666;-50
2022/12/09 19:49:13;;;;;;;17.90;15.98;;;;;;;3.17;70.54;99082.53;10328672;28;20053;-49
2022/12/09 19:54:15;;;;;;;20.23;17.30;;;;;;;3.25;70.18;99079.38;10328914;28;20285;-49
2022/12/09 19:59:17;;;;;;;16.67;14.88;;;;;;;3.07;70.49;99075.41;10341501;28;20548;-50
2022/12/09 20:04:20;;;;;;;18.08;15.52;;;;;;;3.16;70.56;99080.03;10327110;28;20385;-50
2022/12/09 20:09:41;;;;;;;16.88;15.07;;;;;;;3.18;70.39;99073.72;10324441;28;20088;-50
2022/12/09 20:14:43;;;;;;;17.85;15.98;;;;;;;3.23;70.20;99077.78;10330479;28;20049;-50
2022/12/09 20:19:45;;;;;;;17.67;15.13;;;;;;;2.71;71.91;99076.94;10327089;28;20049;-49
2022/12/09 20:24:46;;;;;;;17.40;14.60;;;;;;;2.85;71.35;99070.75;10329040;28;20068;-50
2022/12/09 20:29:48;;;;;;;19.33;14.20;;;;;;;2.72;72.36;99082.09;10326206;28;20050;-50
2022/12/09 20:34:50;;;;;;;16.63;13.63;;;;;;;2.66;71.46;99035.19;10324585;28;20632;-51
2022/12/09 20:39:51;;;;;;;17.25;14.20;;;;;;;3.14;70.93;99082.75;10330007;28;20057;-50
2022/12/09 20:44:53;;;;;;;16.95;14.50;;;;;;;3.16;70.26;99091.38;10327394;28;20662;-50
2022/12/09 20:49:54;;;;;;;15.70;14.05;;;;;;;3.10;70.35;99096.22;10285351;28;1404607;-50
2022/12/09 20:54:56;;;;;;;14.50;12.98;;;;;;;3.12;70.43;99102.22;10336998;28;20065;-51
2022/12/09 20:59:57;;;;;;;17.40;13.50;;;;;;;2.99;70.48;99089.91;10338894;28;20812;-50
2022/12/09 21:04:58;;;;;;;13.85;12.35;;;;;;;3.11;70.50;99098.75;10335503;28;20064;-51
2022/12/09 21:10:00;;;;;;;16.58;14.65;;;;;;;3.07;70.22;99107.78;10333994;28;20068;-51
2022/12/09 21:15:02;;;;;;;16.83;13.73;;;;;;;3.16;69.66;99104.53;10323332;28;20092;-51
2022/12/09 21:20:04;;;;;;;15.30;13.27;;;;;;;3.06;69.32;99089.47;10328339;28;20600;-51
2022/12/09 21:25:06;;;;;;;16.23;13.98;;;;;;;3.02;69.56;99094.13;10329576;28;20504;-50
2022/12/09 21:30:08;;;;;;;17.55;14.18;;;;;;;3.16;69.33;99106.31;10325121;28;20050;-50
2022/12/09 21:35:10;;;;;;;16.95;14.68;;;;;;;3.13;69.57;99107.34;10324056;28;20622;-50
2022/12/09 21:40:12;;;;;;;17.02;14.48;;;;;;;3.17;69.98;99105.38;10325728;28;20863;-50
2022/12/09 21:45:13;;;;;;;17.98;15.35;;;;;;;3.26;69.55;99109.16;10319379;28;20170;-50
2022/12/09 21:50:14;;;;;;;19.42;15.70;;;;;;;3.17;69.67;99113.28;10329276;28;20683;-51
2022/12/09 21:55:16;;;;;;;18.38;15.13;;;;;;;3.19;69.53;99112.19;10318928;28;20569;-51
2022/12/09 22:00:17;;;;;;;18.65;15.38;;;;;;;3.12;69.92;99116.22;10327987;28;20610;-49
2022/12/09 22:05:19;;;;;;;19.02;16.60;;;;;;;3.15;69.80;99110.75;10314172;28;20270;-52
2022/12/09 22:10:20;;;;;;;22.85;16.70;;;;;;;3.13;70.13;99117.88;10314827;28;20058;-50
2022/12/09 22:15:22;;;;;;;22.08;16.85;;;;;;;3.05;70.14;99130.72;10316110;28;20594;-50
2022/12/09 22:20:23;;;;;;;20.10;16.15;;;;;;;3.12;70.05;99137.25;10319042;28;20056;-50
2022/12/09 22:25:44;;;;;;;19.60;16.45;;;;;;;3.12;69.82;99142.50;10309778;28;20057;-50
2022/12/09 22:30:46;;;;;;;19.98;16.45;;;;;;;3.12;70.32;99142.50;10312487;28;20045;-52
2022/12/09 22:35:47;;;;;;;22.58;18.30;;;;;;;3.18;70.61;99147.34;10320487;28;20060;-50
2022/12/09 22:40:49;;;;;;;21.13;17.73;;;;;;;3.21;69.58;99151.53;10320150;28;20083;-50
2022/12/09 22:45:50;;;;;;;23.20;17.65;;;;;;;3.16;70.03;99157.13;10357559;28;20045;-49
2022/12/09 22:50:52;;;;;;;29.90;23.08;;;;;;;3.12;69.57;99160.91;10359544;28;20081;-50
2022/12/09 22:55:53;;;;;;;18.40;16.20;;;;;;;3.05;69.68;99158.78;10361683;28;20053;-50
2022/12/09 23:00:55;;;;;;;19.33;16.48;;;;;;;3.03;69.96;99155.41;10358566;28;20053;-49
2022/12/09 23:06:00;;;;;;;19.70;16.25;;;;;;;2.78;69.64;99113.22;10356416;28;20045;-50
2022/12/09 23:11:05;;;;;;;20.35;17.45;;;;;;;2.92;69.77;99153.50;10358068;28;20258;-49
2022/12/09 23:16:11;;;;;;;19.75;16.80;;;;;;;2.81;69.36;99127.94;10359517;28;20053;-49
2022/12/09 23:21:18;;;;;;;19.38;16.73;;;;;;;2.95;69.52;99148.03;10359745;28;20713;-50
2022/12/09 23:26:21;;;;;;;19.95;16.90;;;;;;;2.77;69.63;99148.31;10361065;28;20046;-50
2022/12/09 23:31:27;;;;;;;20.60;16.80;;;;;;;2.74;70.16;99145.88;10361068;28;20060;-50
2022/12/09 23:36:32;;;;;;;20.20;15.20;;;;;;;2.81;69.60;99149.81;10353942;28;20057;-50